createdAt,value
2018-04-14T00:00:25.676Z,100.00
2018-04-14T00:02:55.442Z,100.00
2018-04-14T00:05:24.497Z,100.00
2018-04-14T00:07:53.455Z,100.00
2018-04-14T00:10:22.658Z,100.00
2018-04-14T00:12:51.856Z,100.00
2018-04-14T00:15:20.740Z,100.00
2018-04-14T00:17:49.762Z,100.00
2018-04-14T00:20:20.420Z,100.00
2018-04-14T00:22:49.571Z,100.00
2018-04-14T00:25:18.777Z,100.00
2018-04-14T00:27:47.969Z,100.00
2018-04-14T00:30:17.790Z,100.00
2018-04-14T00:32:48.635Z,100.00
2018-04-14T00:35:17.620Z,100.00
2018-04-14T00:37:47.287Z,100.00
2018-04-14T00:40:16.238Z,100.00
2018-04-14T00:42:45.063Z,100.00
2018-04-14T00:45:14.387Z,100.00
2018-04-14T00:47:45.221Z,100.00
2018-04-14T00:50:14.308Z,100.00
2018-04-14T00:52:44.299Z,100.00
2018-04-14T00:55:13.467Z,100.00
2018-04-14T00:57:42.551Z,100.00
2018-04-14T01:00:11.715Z,100.00
2018-04-14T01:02:40.720Z,100.00
2018-04-14T01:05:09.961Z,100.00
2018-04-14T01:07:38.801Z,100.00
2018-04-14T01:10:08.098Z,100.00
2018-04-14T01:12:37.734Z,100.00
2018-04-14T01:15:06.706Z,100.00
2018-04-14T01:17:36.519Z,100.00
2018-04-14T01:20:05.511Z,100.00
2018-04-14T01:22:34.732Z,100.00
2018-04-14T01:25:04.694Z,100.00
2018-04-14T01:27:34.475Z,100.00
2018-04-14T01:30:04.458Z,100.00
2018-04-14T01:32:35.264Z,100.00
2018-04-14T01:35:06.285Z,100.00
2018-04-14T01:37:35.267Z,100.00
2018-04-14T01:40:07.917Z,100.00
2018-04-14T01:42:37.105Z,100.00
2018-04-14T01:45:06.041Z,100.00
2018-04-14T01:47:35.500Z,100.00
2018-04-14T01:50:04.608Z,100.00
2018-04-14T01:52:34.450Z,100.00
2018-04-14T01:55:05.895Z,100.00
2018-04-14T01:57:35.866Z,100.00
2018-04-14T02:00:05.079Z,100.00
2018-04-14T02:02:35.004Z,100.00
2018-04-14T02:05:04.922Z,100.00
2018-04-14T02:07:33.904Z,100.00
2018-04-14T02:10:03.139Z,100.00
2018-04-14T02:12:32.882Z,100.00
2018-04-14T02:15:02.740Z,100.00
2018-04-14T02:17:32.643Z,100.00
2018-04-14T02:20:01.625Z,100.00
2018-04-14T02:22:30.841Z,100.00
2018-04-14T02:24:59.831Z,100.00
2018-04-14T02:27:28.928Z,100.00
2018-04-14T02:29:57.964Z,100.00
2018-04-14T02:32:26.966Z,100.00
2018-04-14T02:34:57.036Z,100.00
2018-04-14T02:37:26.232Z,100.00
2018-04-14T02:39:55.881Z,100.00
2018-04-14T02:42:24.947Z,100.00
2018-04-14T02:44:55.071Z,100.00
2018-04-14T02:47:24.189Z,100.00
2018-04-14T02:49:53.256Z,100.00
2018-04-14T02:52:23.061Z,100.00
2018-04-14T02:54:52.106Z,100.00
2018-04-14T02:57:22.077Z,100.00
2018-04-14T02:59:51.217Z,100.00
2018-04-14T03:02:20.379Z,100.00
2018-04-14T03:04:50.300Z,100.00
2018-04-14T03:07:19.283Z,100.00
2018-04-14T03:12:23.275Z,100.00
2018-04-14T03:14:53.813Z,100.00
2018-04-14T03:17:23.761Z,100.00
2018-04-14T03:19:52.954Z,100.00
2018-04-14T03:22:22.152Z,100.00
2018-04-14T03:24:51.257Z,100.00
2018-04-14T03:27:20.285Z,100.00
2018-04-14T03:29:49.343Z,100.00
2018-04-14T03:32:19.308Z,100.00
2018-04-14T03:34:48.359Z,100.00
2018-04-14T03:37:17.472Z,100.00
2018-04-14T03:39:47.404Z,100.00
2018-04-14T03:42:17.176Z,100.00
2018-04-14T03:44:47.193Z,100.00
2018-04-14T03:47:18.858Z,100.00
2018-04-14T03:49:48.976Z,100.00
2018-04-14T03:52:18.062Z,100.00
2018-04-14T03:54:48.786Z,100.00
2018-04-14T03:57:17.901Z,100.00
2018-04-14T03:59:46.995Z,100.00
2018-04-14T04:02:17.048Z,100.00
2018-04-14T04:04:46.060Z,100.00
2018-04-14T04:07:15.001Z,100.00
2018-04-14T04:09:56.198Z,100.00
2018-04-14T04:12:25.389Z,100.00
2018-04-14T04:14:54.372Z,100.00
2018-04-14T04:20:17.383Z,100.00
2018-04-14T04:22:58.116Z,100.00
2018-04-14T04:25:40.214Z,100.00
2018-04-14T04:28:09.130Z,100.00
2018-04-14T04:30:37.809Z,100.00
2018-04-14T04:33:06.625Z,100.00
2018-04-14T04:35:36.197Z,100.00
2018-04-14T04:38:04.989Z,100.00
2018-04-14T04:40:36.228Z,100.00
2018-04-14T04:43:05.107Z,100.00
2018-04-14T04:45:33.806Z,100.00
2018-04-14T04:48:05.149Z,100.00
2018-04-14T04:50:34.248Z,100.00
2018-04-14T04:53:03.961Z,100.00
2018-04-14T04:55:34.629Z,100.00
2018-04-14T04:58:04.097Z,100.00
2018-04-14T05:00:33.854Z,100.00
2018-04-14T05:03:04.443Z,100.00
2018-04-14T05:05:33.136Z,100.00
2018-04-14T05:08:02.676Z,100.00
2018-04-14T05:10:32.183Z,100.00
2018-04-14T05:13:00.828Z,100.00
2018-04-14T05:15:29.417Z,100.00
2018-04-14T05:18:03.325Z,100.00
2018-04-14T05:20:32.007Z,100.00
2018-04-14T05:23:00.690Z,100.00
2018-04-14T05:25:30.853Z,100.00
2018-04-14T05:27:59.556Z,100.00
2018-04-14T05:30:29.317Z,100.00
2018-04-14T05:32:58.923Z,100.00
2018-04-14T05:35:28.508Z,100.00
2018-04-14T05:37:57.121Z,100.00
2018-04-14T05:40:26.045Z,100.00
2018-04-14T05:42:55.004Z,100.00
2018-04-14T05:45:23.791Z,100.00
2018-04-14T05:47:53.400Z,100.00
2018-04-14T05:50:22.198Z,100.00
2018-04-14T05:52:50.919Z,100.00
2018-04-14T05:55:19.868Z,100.00
2018-04-14T05:57:49.070Z,100.00
2018-04-14T06:00:17.843Z,100.00
2018-04-14T06:02:46.705Z,100.00
2018-04-14T06:05:15.393Z,100.00
2018-04-14T06:07:45.664Z,100.00
2018-04-14T06:10:15.522Z,100.00
2018-04-14T06:12:44.309Z,100.00
2018-04-14T06:15:13.197Z,100.00
2018-04-14T06:17:54.223Z,100.00
2018-04-14T06:20:23.120Z,100.00
2018-04-14T06:22:51.806Z,100.00
2018-04-14T06:27:55.569Z,100.00
2018-04-14T06:30:24.353Z,100.00
2018-04-14T06:32:54.021Z,100.00
2018-04-14T06:35:23.531Z,100.00
2018-04-14T06:37:53.144Z,100.00
2018-04-14T06:40:23.559Z,100.00
2018-04-14T06:42:52.357Z,100.00
2018-04-14T06:45:21.150Z,100.00
2018-04-14T06:47:51.885Z,100.00
2018-04-14T06:50:21.317Z,100.00
2018-04-14T06:52:50.017Z,100.00
2018-04-14T06:55:18.756Z,98.79
2018-04-14T06:57:48.428Z,97.67
2018-04-14T07:00:17.097Z,96.82
2018-04-14T07:02:45.873Z,95.95
2018-04-14T07:05:15.530Z,97.25
2018-04-14T07:07:44.565Z,97.61
2018-04-14T07:12:48.849Z,99.70
2018-04-14T07:15:17.518Z,100.00
2018-04-14T07:17:46.159Z,98.82
2018-04-14T07:20:16.702Z,100.00
2018-04-14T07:22:48.491Z,98.51
2018-04-14T07:25:18.018Z,99.23
2018-04-14T07:27:46.738Z,98.79
2018-04-14T07:30:16.655Z,97.14
2018-04-14T07:32:45.865Z,96.18
2018-04-14T07:35:14.544Z,95.56
2018-04-14T07:37:43.843Z,95.09
2018-04-14T07:40:12.632Z,95.64
2018-04-14T07:42:41.456Z,95.55
2018-04-14T07:45:10.108Z,93.66
2018-04-14T07:47:40.767Z,93.73
2018-04-14T07:50:10.147Z,93.02
2018-04-14T07:52:39.702Z,93.83
2018-04-14T07:55:12.538Z,94.53
2018-04-14T07:57:42.406Z,94.35
2018-04-14T08:00:11.761Z,95.43
2018-04-14T08:02:41.462Z,96.54
2018-04-14T08:05:10.467Z,96.55
2018-04-14T08:07:40.066Z,95.61
2018-04-14T08:12:42.492Z,96.36
2018-04-14T08:15:11.279Z,95.11
2018-04-14T08:17:40.984Z,96.07
2018-04-14T08:20:09.644Z,95.21
2018-04-14T08:22:38.536Z,97.30
2018-04-14T08:27:42.322Z,98.23
2018-04-14T08:30:12.065Z,96.92
2018-04-14T08:32:42.500Z,97.86
2018-04-14T08:35:12.969Z,97.55
2018-04-14T08:37:41.855Z,97.10
2018-04-14T08:40:10.666Z,96.88
2018-04-14T08:42:39.359Z,97.74
2018-04-14T08:45:08.204Z,99.26
2018-04-14T08:47:37.793Z,97.67
2018-04-14T08:50:06.436Z,96.64
2018-04-14T08:52:35.168Z,97.26
2018-04-14T08:55:04.828Z,96.43
2018-04-14T08:57:34.534Z,96.22
2018-04-14T09:00:03.480Z,95.09
2018-04-14T09:05:07.518Z,94.72
2018-04-14T09:07:36.411Z,96.86
2018-04-14T09:10:08.623Z,97.30
2018-04-14T09:12:40.886Z,96.24
2018-04-14T09:15:23.964Z,96.33
2018-04-14T09:17:53.171Z,95.32
2018-04-14T09:20:22.256Z,95.68
2018-04-14T09:22:51.355Z,94.82
2018-04-14T09:25:21.218Z,93.90
2018-04-14T09:27:50.170Z,91.49
2018-04-14T09:33:01.000Z,92.74
2018-04-14T09:35:30.153Z,91.17
2018-04-14T09:38:01.563Z,91.39
2018-04-14T09:40:34.388Z,91.32
2018-04-14T09:43:03.943Z,90.42
2018-04-14T09:45:33.954Z,89.49
2018-04-14T09:48:03.012Z,89.85
2018-04-14T09:50:32.102Z,91.11
2018-04-14T09:53:02.124Z,90.60
2018-04-14T09:55:31.152Z,89.24
2018-04-14T09:58:00.244Z,88.94
2018-04-14T10:00:29.358Z,88.14
2018-04-14T10:03:02.605Z,87.18
2018-04-14T10:05:31.810Z,88.00
2018-04-14T10:08:00.790Z,88.06
2018-04-14T10:10:30.693Z,87.49
2018-04-14T10:12:59.979Z,89.70
2018-04-14T10:15:29.616Z,87.94
2018-04-14T10:18:00.563Z,87.62
2018-04-14T10:20:29.651Z,88.33
2018-04-14T10:22:58.597Z,89.51
2018-04-14T10:25:27.547Z,88.84
2018-04-14T10:27:57.501Z,89.73
2018-04-14T10:30:27.573Z,91.37
2018-04-14T10:32:56.744Z,89.34
2018-04-14T10:35:25.666Z,89.46
2018-04-14T10:37:55.050Z,89.91
2018-04-14T10:40:26.627Z,90.88
2018-04-14T10:42:55.737Z,91.95
2018-04-14T10:45:24.731Z,90.80
2018-04-14T10:47:54.835Z,90.15
2018-04-14T10:50:23.802Z,90.97
2018-04-14T10:52:53.568Z,89.99
2018-04-14T10:55:25.206Z,89.67
2018-04-14T10:57:54.192Z,89.54
2018-04-14T11:00:23.293Z,87.84
2018-04-14T11:02:53.247Z,87.97
2018-04-14T11:05:24.758Z,87.52
2018-04-14T11:07:53.887Z,87.30
2018-04-14T11:10:22.985Z,88.96
2018-04-14T11:12:52.666Z,90.20
2018-04-14T11:15:22.071Z,90.06
2018-04-14T11:17:58.231Z,89.36
2018-04-14T11:20:27.506Z,90.18
2018-04-14T11:22:57.292Z,91.84
2018-04-14T11:25:27.810Z,92.14
2018-04-14T11:27:56.821Z,91.79
2018-04-14T11:30:25.908Z,90.89
2018-04-14T11:32:57.723Z,90.83
2018-04-14T11:35:27.679Z,89.72
2018-04-14T11:37:56.640Z,89.11
2018-04-14T11:43:00.915Z,91.16
2018-04-14T11:45:30.680Z,90.20
2018-04-14T11:48:01.652Z,90.63
2018-04-14T11:50:30.924Z,90.60
2018-04-14T11:53:00.056Z,90.40
2018-04-14T11:55:31.571Z,89.33
2018-04-14T11:58:00.669Z,89.51
2018-04-14T12:00:29.864Z,90.64
2018-04-14T12:03:00.609Z,91.43
2018-04-14T12:05:29.634Z,90.50
2018-04-14T12:07:58.693Z,90.06
2018-04-14T12:10:27.799Z,90.68
2018-04-14T12:12:56.782Z,90.94
2018-04-14T12:15:26.738Z,90.64
2018-04-14T12:17:56.639Z,91.00
2018-04-14T12:20:25.737Z,90.76
2018-04-14T12:22:54.748Z,89.98
2018-04-14T12:25:24.566Z,91.68
2018-04-14T12:27:53.716Z,92.53
2018-04-14T12:30:23.889Z,93.25
2018-04-14T12:32:52.852Z,92.06
2018-04-14T12:35:21.858Z,93.33
2018-04-14T12:40:33.977Z,91.60
2018-04-14T12:43:02.941Z,90.94
2018-04-14T12:45:34.595Z,90.57
2018-04-14T12:48:05.027Z,90.81
2018-04-14T12:50:34.272Z,91.61
2018-04-14T12:53:03.321Z,93.42
2018-04-14T12:55:33.145Z,93.05
2018-04-14T12:58:02.273Z,93.32
2018-04-14T13:00:31.555Z,92.72
2018-04-14T13:03:00.666Z,93.54
2018-04-14T13:05:29.750Z,93.67
2018-04-14T13:07:58.973Z,94.24
2018-04-14T13:10:28.152Z,93.48
2018-04-14T13:12:58.340Z,93.45
2018-04-14T13:15:27.998Z,94.26
2018-04-14T13:17:56.960Z,94.69
2018-04-14T13:20:25.870Z,94.63
2018-04-14T13:22:54.829Z,93.92
2018-04-14T13:25:24.785Z,94.94
2018-04-14T13:27:53.842Z,94.94
2018-04-14T13:30:24.441Z,93.89
2018-04-14T13:32:54.593Z,92.08
2018-04-14T13:35:23.827Z,93.54
2018-04-14T13:37:53.027Z,94.41
2018-04-14T13:40:22.748Z,93.90
2018-04-14T13:42:51.653Z,94.40
2018-04-14T13:45:21.558Z,95.03
2018-04-14T13:47:50.401Z,95.47
2018-04-14T13:50:19.322Z,95.54
2018-04-14T13:55:22.909Z,95.93
2018-04-14T13:57:52.823Z,94.77
2018-04-14T14:00:22.746Z,94.60
2018-04-14T14:02:51.777Z,94.92
2018-04-14T14:05:20.735Z,95.83
2018-04-14T14:07:52.686Z,96.63
2018-04-14T14:10:21.895Z,97.54
2018-04-14T14:12:51.816Z,97.66
2018-04-14T14:15:22.661Z,98.23
2018-04-14T14:17:53.564Z,99.19
2018-04-14T14:20:23.026Z,100.00
2018-04-14T14:22:54.101Z,100.00
2018-04-14T14:25:23.092Z,99.81
2018-04-14T14:27:52.154Z,99.31
2018-04-14T14:30:21.155Z,98.53
2018-04-14T14:32:50.204Z,99.02
2018-04-14T14:35:19.244Z,97.79
2018-04-14T14:37:54.242Z,96.93
2018-04-14T14:40:23.585Z,97.14
2018-04-14T14:42:52.654Z,97.99
2018-04-14T14:45:23.341Z,99.01
2018-04-14T14:47:52.471Z,99.21
2018-04-14T14:50:26.889Z,99.54
2018-04-14T14:52:55.967Z,99.66
2018-04-14T14:55:26.836Z,99.53
2018-04-14T14:57:58.121Z,98.75
2018-04-14T15:00:27.217Z,98.63
2018-04-14T15:02:56.623Z,99.31
2018-04-14T15:08:00.952Z,100.00
2018-04-14T15:10:29.907Z,100.00
2018-04-14T15:13:01.980Z,100.00
2018-04-14T15:15:31.477Z,100.00
2018-04-14T15:18:02.004Z,100.00
2018-04-14T15:20:31.131Z,100.00
2018-04-14T15:23:00.101Z,100.00
2018-04-14T15:25:29.300Z,100.00
2018-04-14T15:27:58.499Z,100.00
2018-04-14T15:30:27.496Z,100.00
2018-04-14T15:32:56.488Z,100.00
2018-04-14T15:35:25.675Z,100.00
2018-04-14T15:37:55.493Z,100.00
2018-04-14T15:40:25.638Z,100.00
2018-04-14T15:42:56.753Z,100.00
2018-04-14T15:45:25.755Z,100.00
2018-04-14T15:47:54.964Z,100.00
2018-04-14T15:50:25.472Z,100.00
2018-04-14T15:52:54.677Z,100.00
2018-04-14T15:55:23.668Z,100.00
2018-04-14T15:57:53.443Z,100.00
2018-04-14T16:00:22.631Z,100.00
2018-04-14T16:02:52.425Z,100.00
2018-04-14T16:05:25.079Z,100.00
2018-04-14T16:07:55.311Z,100.00
2018-04-14T16:10:25.352Z,100.00
2018-04-14T16:12:55.780Z,100.00
2018-04-14T16:15:24.750Z,100.00
2018-04-14T16:20:28.397Z,100.00
2018-04-14T16:22:57.602Z,100.00
2018-04-14T16:25:29.422Z,100.00
2018-04-14T16:27:58.914Z,100.00
2018-04-14T16:30:28.809Z,100.00
2018-04-14T16:33:02.572Z,100.00
2018-04-14T16:35:32.313Z,100.00
2018-04-14T16:38:01.455Z,100.00
2018-04-14T16:40:32.500Z,100.00
2018-04-14T16:43:03.136Z,100.00
2018-04-14T16:45:34.378Z,100.00
2018-04-14T16:48:04.607Z,100.00
2018-04-14T16:50:34.007Z,100.00
2018-04-14T16:53:03.204Z,100.00
2018-04-14T16:55:35.275Z,100.00
2018-04-14T16:58:04.467Z,100.00
2018-04-14T17:00:33.706Z,100.00
2018-04-14T17:03:03.790Z,100.00
2018-04-14T17:05:37.049Z,100.00
2018-04-14T17:08:06.117Z,100.00
2018-04-14T17:10:35.221Z,100.00
2018-04-14T17:13:04.315Z,100.00
2018-04-14T17:15:33.195Z,100.00
2018-04-14T17:18:02.253Z,100.00
2018-04-14T17:20:33.155Z,100.00
2018-04-14T17:23:02.190Z,100.00
2018-04-14T17:25:31.978Z,100.00
2018-04-14T17:28:02.723Z,100.00
2018-04-14T17:30:31.832Z,100.00
2018-04-14T17:33:01.235Z,100.00
2018-04-14T17:38:04.632Z,100.00
2018-04-14T17:40:34.565Z,100.00
2018-04-14T17:43:03.649Z,100.00
2018-04-14T17:45:32.600Z,100.00
2018-04-14T17:48:01.818Z,100.00
2018-04-14T17:50:31.837Z,100.00
2018-04-14T17:53:00.976Z,100.00
2018-04-14T17:55:29.970Z,100.00
2018-04-14T17:58:00.699Z,100.00
2018-04-14T18:00:30.311Z,100.00
2018-04-14T18:02:59.614Z,100.00
2018-04-14T18:05:31.267Z,100.00
2018-04-14T18:08:00.607Z,100.00
2018-04-14T18:10:29.707Z,100.00
2018-04-14T18:13:00.576Z,100.00
2018-04-14T18:15:29.637Z,100.00
2018-04-14T18:17:58.955Z,100.00
2018-04-14T18:20:28.997Z,100.00
2018-04-14T18:23:00.474Z,100.00
2018-04-14T18:25:32.726Z,100.00
2018-04-14T18:28:04.710Z,100.00
2018-04-14T18:30:35.749Z,100.00
2018-04-14T18:33:04.869Z,100.00
2018-04-14T18:35:34.203Z,100.00
2018-04-14T18:38:03.454Z,100.00
2018-04-14T18:40:33.981Z,100.00
2018-04-14T18:43:04.039Z,100.00
2018-04-14T18:45:35.791Z,100.00
2018-04-14T18:48:08.429Z,100.00
2018-04-14T18:50:37.689Z,100.00
2018-04-14T18:53:06.875Z,100.00
2018-04-14T18:55:35.929Z,100.00
2018-04-14T18:58:05.237Z,100.00
2018-04-14T19:00:34.440Z,100.00
2018-04-14T19:03:05.287Z,100.00
2018-04-14T19:05:34.463Z,100.00
2018-04-14T19:08:05.660Z,100.00
2018-04-14T19:10:36.508Z,100.00
2018-04-14T19:13:05.743Z,100.00
2018-04-14T19:15:34.686Z,100.00
2018-04-14T19:20:42.560Z,100.00
2018-04-14T19:23:12.104Z,100.00
2018-04-14T19:25:41.900Z,100.00
2018-04-14T19:28:10.980Z,100.00
2018-04-14T19:30:40.893Z,100.00
2018-04-14T19:33:10.747Z,100.00
2018-04-14T19:35:44.413Z,100.00
2018-04-14T19:38:14.539Z,100.00
2018-04-14T19:40:43.476Z,100.00
2018-04-14T19:45:49.035Z,100.00
2018-04-14T19:48:19.025Z,100.00
2018-04-14T19:50:48.196Z,100.00
2018-04-14T19:53:17.453Z,100.00
2018-04-14T19:55:47.537Z,100.00
2018-04-14T19:58:17.743Z,100.00
2018-04-14T20:00:46.701Z,100.00
2018-04-14T20:03:15.675Z,100.00
2018-04-14T20:05:45.340Z,100.00
2018-04-14T20:08:17.452Z,100.00
2018-04-14T20:10:46.505Z,100.00
2018-04-14T20:13:16.433Z,100.00
2018-04-14T20:15:46.027Z,100.00
2018-04-14T20:18:16.813Z,100.00
2018-04-14T20:20:45.960Z,100.00
2018-04-14T20:23:15.052Z,100.00
2018-04-14T20:25:44.162Z,100.00
2018-04-14T20:28:13.173Z,100.00
2018-04-14T20:30:42.286Z,100.00
2018-04-14T20:33:12.204Z,100.00
2018-04-14T20:35:41.259Z,100.00
2018-04-14T20:38:10.464Z,100.00
2018-04-14T20:40:40.357Z,100.00
2018-04-14T20:43:09.343Z,100.00
2018-04-14T20:45:38.353Z,100.00
2018-04-14T20:48:07.657Z,100.00
2018-04-14T20:50:36.964Z,100.00
2018-04-14T20:53:05.954Z,100.00
2018-04-14T20:55:35.169Z,100.00
2018-04-14T20:58:05.183Z,100.00
2018-04-14T21:00:34.271Z,100.00
2018-04-14T21:03:04.137Z,100.00
2018-04-14T21:05:33.233Z,100.00
2018-04-14T21:08:02.167Z,100.00
2018-04-14T21:10:33.056Z,100.00
2018-04-14T21:13:02.107Z,100.00
2018-04-14T21:15:31.402Z,100.00
2018-04-14T21:18:00.611Z,100.00
2018-04-14T21:20:29.703Z,100.00
2018-04-14T21:22:59.036Z,99.92
2018-04-14T21:25:28.756Z,100.00
2018-04-14T21:27:58.611Z,99.79
2018-04-14T21:30:27.827Z,100.00
2018-04-14T21:32:57.854Z,99.35
2018-04-14T21:35:26.949Z,98.99
2018-04-14T21:37:56.959Z,97.85
2018-04-14T21:40:26.059Z,98.88
2018-04-14T21:42:55.015Z,99.30
2018-04-14T21:45:25.594Z,99.20
2018-04-14T21:47:54.524Z,98.81
2018-04-14T21:50:23.929Z,98.40
2018-04-14T21:52:53.070Z,98.15
2018-04-14T21:57:55.974Z,97.89
2018-04-14T22:00:25.174Z,98.43
2018-04-14T22:02:54.286Z,98.29
2018-04-14T22:05:24.368Z,98.09
2018-04-14T22:07:54.413Z,97.85
2018-04-14T22:10:24.304Z,97.59
2018-04-14T22:12:54.147Z,97.77
2018-04-14T22:15:24.364Z,97.91
2018-04-14T22:17:54.146Z,98.06
2018-04-14T22:20:35.664Z,97.98
2018-04-14T22:23:23.478Z,97.10
2018-04-14T22:25:59.458Z,97.01
2018-04-14T22:28:28.961Z,97.00
2018-04-14T22:30:58.884Z,97.88
2018-04-14T22:33:28.433Z,98.54
2018-04-14T22:35:57.338Z,98.48
2018-04-14T22:38:26.369Z,98.55
2018-04-14T22:41:01.014Z,99.29
2018-04-14T22:43:29.999Z,100.00
2018-04-14T22:45:59.183Z,100.00
2018-04-14T22:48:28.698Z,100.00
2018-04-14T22:50:58.270Z,100.00
2018-04-14T22:53:27.405Z,99.83
2018-04-14T22:55:56.557Z,99.40
2018-04-14T22:58:25.600Z,99.30
2018-04-14T23:00:58.075Z,99.29
2018-04-14T23:03:27.954Z,99.40
2018-04-14T23:05:56.962Z,99.11
2018-04-14T23:08:27.692Z,99.06
2018-04-14T23:10:56.711Z,99.07
2018-04-14T23:13:26.728Z,99.26
2018-04-14T23:15:57.160Z,99.25
2018-04-14T23:18:26.254Z,99.20
2018-04-14T23:20:55.269Z,99.20
2018-04-14T23:23:25.464Z,99.37
2018-04-14T23:25:55.133Z,99.83
2018-04-14T23:28:24.221Z,100.00
2018-04-14T23:30:54.191Z,100.00
2018-04-14T23:33:23.238Z,100.00
2018-04-14T23:35:53.109Z,100.00
2018-04-14T23:38:22.402Z,100.00
2018-04-14T23:40:51.390Z,100.00
2018-04-14T23:43:20.696Z,100.00
2018-04-14T23:45:50.678Z,99.83
2018-04-14T23:48:19.648Z,99.10
2018-04-14T23:50:48.697Z,99.41
2018-04-14T23:53:18.671Z,99.37
2018-04-14T23:55:47.774Z,98.53
2018-04-14T23:58:17.523Z,97.90
